Time;durP1;ratioP1;P1;durP2;ratioP2;P2;SDS_P1;SDS_P2;PMS_P1;PMS_P2;Temp;Humidity;BMP_temperature;BMP_pressure;BME280_temperature;BME280_humidity;BME280_pressure;Samples;Min_cycle;Max_cycle;Signal;HPM_P1;HPM_P2
2022/04/21 00:02:01;;;;;;;68.30;35.60;;;;;;;7.76;81.82;99641.11;107223;1271;108667;-77
2022/04/21 00:04:34;;;;;;;64.90;34.50;;;;;;;7.77;81.63;99641.44;106220;1271;98025;-76
2022/04/21 00:07:06;;;;;;;58.40;34.10;;;;;;;7.76;81.69;99645.09;106117;1271;138168;-76
2022/04/21 00:09:39;;;;;;;55.60;35.30;;;;;;;7.76;81.61;99646.14;107847;1271;112513;-76
2022/04/21 00:12:12;;;;;;;78.90;33.60;;;;;;;7.78;81.85;99644.34;107683;1271;138591;-77
2022/04/21 00:14:44;;;;;;;55.10;32.60;;;;;;;7.79;81.95;99647.25;107827;1271;107557;-76
2022/04/21 00:17:16;;;;;;;51.80;31.90;;;;;;;7.79;81.85;99644.66;107393;1271;139294;-74
2022/04/21 00:19:48;;;;;;;46.20;32.10;;;;;;;7.83;82.04;99643.66;106228;1271;97815;-76
2022/04/21 00:25:11;;;;;;;48.10;30.70;;;;;;;7.90;81.98;99638.78;106384;1271;138600;-76
2022/04/21 00:27:45;;;;;;;53.90;30.80;;;;;;;7.92;81.84;99642.38;107786;1271;108918;-77
2022/04/21 00:30:18;;;;;;;45.80;30.50;;;;;;;7.94;81.79;99643.70;106157;1271;138775;-76
2022/04/21 00:32:50;;;;;;;44.70;30.20;;;;;;;7.95;81.89;99641.39;106254;1271;97853;-76
2022/04/21 00:35:29;;;;;;;49.10;30.90;;;;;;;7.98;81.93;99640.44;106237;1271;139199;-77
2022/04/21 00:38:01;;;;;;;56.90;31.30;;;;;;;8.02;81.97;99637.19;106772;1271;108893;-76
2022/04/21 00:40:33;;;;;;;51.50;29.80;;;;;;;8.04;81.73;99636.77;107204;1271;109348;-76
2022/04/21 00:43:06;;;;;;;45.40;30.00;;;;;;;8.05;81.85;99633.81;107316;1271;138562;-77
2022/04/21 00:45:38;;;;;;;48.40;29.70;;;;;;;8.05;81.81;99630.69;107842;1271;96022;-76
2022/04/21 00:48:10;;;;;;;49.10;29.90;;;;;;;8.05;81.73;99627.75;107681;1271;139647;-76
2022/04/21 00:50:42;;;;;;;50.60;29.70;;;;;;;8.08;81.85;99630.09;107590;1271;108105;-78
2022/04/21 00:53:14;;;;;;;50.90;31.10;;;;;;;8.11;81.70;99632.05;106089;1271;138897;-77
2022/04/21 00:55:46;;;;;;;57.80;29.00;;;;;;;8.14;81.78;99632.67;106549;1271;98068;-76
2022/04/21 00:58:18;;;;;;;49.10;30.00;;;;;;;8.12;81.77;99629.95;106938;1271;97858;-76
2022/04/21 01:00:51;;;;;;;64.30;28.60;;;;;;;8.13;81.71;99629.04;105994;1273;138595;-76
2022/04/21 01:03:23;;;;;;;60.80;30.40;;;;;;;8.15;81.78;99625.17;106254;1271;108415;-77
2022/04/21 01:05:55;;;;;;;49.60;30.40;;;;;;;8.14;81.67;99624.52;107425;1270;138498;-78
2022/04/21 01:08:27;;;;;;;44.40;29.50;;;;;;;8.14;81.65;99632.64;107787;1271;96030;-77
2022/04/21 01:10:59;;;;;;;62.80;30.00;;;;;;;8.13;81.70;99629.23;106591;1271;138866;-76
2022/04/21 01:13:31;;;;;;;58.30;30.40;;;;;;;8.13;81.70;99631.11;106334;1271;111103;-77
2022/04/21 01:16:03;;;;;;;48.60;29.20;;;;;;;8.13;81.79;99630.95;106300;1271;109159;-77
2022/04/21 01:18:35;;;;;;;47.70;29.30;;;;;;;8.13;81.75;99633.53;106608;1271;140190;-76
2022/04/21 01:21:07;;;;;;;50.20;29.50;;;;;;;8.12;81.59;99635.51;106329;1271;97839;-77
2022/04/21 01:23:39;;;;;;;52.40;28.10;;;;;;;8.12;81.73;99636.35;106924;1271;139179;-77
2022/04/21 01:26:13;;;;;;;44.10;27.40;;;;;;;8.15;81.80;99632.12;107795;1271;111211;-77
2022/04/21 01:28:46;;;;;;;51.10;27.70;;;;;;;8.17;82.03;99630.83;107806;1271;106824;-77
2022/04/21 01:31:23;;;;;;;55.40;27.10;;;;;;;8.21;81.91;99634.16;107633;1270;139530;-77
2022/04/21 01:33:55;;;;;;;47.20;27.10;;;;;;;8.24;81.86;99631.14;106342;1271;98368;-77
2022/04/21 01:36:27;;;;;;;51.50;27.60;;;;;;;8.27;81.86;99626.52;106148;1271;137707;-77
2022/04/21 01:41:48;;;;;;;55.90;28.00;;;;;;;8.24;81.70;99616.55;106659;1271;137942;-77
2022/04/21 01:44:21;;;;;;;54.00;28.60;;;;;;;8.23;81.58;99610.52;106740;1271;108294;-78
2022/04/21 01:46:53;;;;;;;41.90;26.70;;;;;;;8.24;81.70;99605.66;107793;1271;95740;-78
2022/04/21 01:49:25;;;;;;;41.30;25.30;;;;;;;8.23;81.80;99609.65;107671;1271;138472;-78
2022/04/21 01:51:57;;;;;;;43.60;26.20;;;;;;;8.22;81.76;99607.44;107816;1270;111395;-77
2022/04/21 01:54:29;;;;;;;41.30;25.20;;;;;;;8.24;81.88;99603.05;107699;1271;138451;-78
2022/04/21 01:57:01;;;;;;;46.00;25.40;;;;;;;8.27;81.96;99603.66;107804;1270;109028;-78
2022/04/21 01:59:33;;;;;;;41.40;24.90;;;;;;;8.28;81.91;99606.73;107655;1271;139426;-78
2022/04/21 02:02:06;;;;;;;35.60;24.30;;;;;;;8.30;82.05;99599.92;107819;1271;95639;-79
2022/04/21 02:04:38;;;;;;;35.70;22.70;;;;;;;8.36;82.06;99601.29;107812;1271;112009;-78
2022/04/21 02:07:10;;;;;;;48.10;23.60;;;;;;;8.36;81.82;99595.58;107680;1271;139788;-78
2022/04/21 02:09:42;;;;;;;48.80;22.70;;;;;;;8.35;81.73;99594.75;107834;1271;107747;-78
2022/04/21 02:12:14;;;;;;;35.60;22.60;;;;;;;8.34;81.82;99591.48;107669;1271;139304;-78
2022/04/21 02:14:46;;;;;;;32.20;21.50;;;;;;;8.38;82.04;99586.35;107793;1271;96175;-78
2022/04/21 02:17:19;;;;;;;31.90;19.60;;;;;;;8.41;82.04;99583.80;107624;1271;139742;-78
2022/04/21 02:19:50;;;;;;;34.80;21.10;;;;;;;8.44;81.96;99586.14;107825;1270;108737;-78
2022/04/21 02:22:23;;;;;;;32.60;21.00;;;;;;;8.48;81.96;99585.13;107532;1271;365812;-78
2022/04/21 02:24:55;;;;;;;35.80;22.10;;;;;;;8.51;81.81;99582.98;106742;1272;137827;-77
2022/04/21 02:27:27;;;;;;;32.90;21.20;;;;;;;8.51;81.65;99580.56;106278;1271;97849;-77
2022/04/21 02:29:59;;;;;;;28.80;20.50;;;;;;;8.46;81.69;99573.59;106166;1271;139353;-77
2022/04/21 02:32:32;;;;;;;24.10;18.30;;;;;;;8.43;81.58;99573.70;106320;1271;108851;-79
2022/04/21 02:35:04;;;;;;;27.30;18.70;;;;;;;8.39;81.78;99573.30;106213;1271;110480;-77
2022/04/21 02:37:39;;;;;;;25.70;18.60;;;;;;;8.38;81.86;99570.55;106344;1271;139426;-78
2022/04/21 02:40:12;;;;;;;25.70;17.00;;;;;;;8.34;81.81;99568.61;106335;1271;97819;-77
2022/04/21 02:42:45;;;;;;;23.80;18.30;;;;;;;8.31;81.84;99567.70;106632;1271;138673;-77
2022/04/21 02:45:17;;;;;;;21.60;15.60;;;;;;;8.29;82.00;99569.98;106256;1271;108895;-76
2022/04/21 02:47:49;;;;;;;20.90;15.80;;;;;;;8.30;82.05;99570.84;106144;1271;138823;-78
2022/04/21 02:50:23;;;;;;;21.50;15.50;;;;;;;8.30;82.21;99569.08;106256;1271;97835;-77
2022/04/21 02:52:58;;;;;;;19.40;14.60;;;;;;;8.33;82.36;99571.26;107651;1271;95696;-75
2022/04/21 02:58:26;;;;;;;19.40;14.70;;;;;;;8.45;82.44;99570.33;105963;1277;109212;-76
2022/04/21 03:00:59;;;;;;;17.80;14.70;;;;;;;8.47;82.25;99566.61;105810;1276;138018;-76
2022/04/21 03:03:31;;;;;;;16.50;14.00;;;;;;;8.45;82.17;99566.55;105889;1276;97895;-76
2022/04/21 03:06:03;;;;;;;15.80;13.80;;;;;;;8.44;82.15;99565.18;105853;1279;137721;-76
2022/04/21 03:08:35;;;;;;;16.30;12.70;;;;;;;8.42;82.13;99563.14;105937;1277;112570;-76
2022/04/21 03:11:07;;;;;;;14.60;11.90;;;;;;;8.42;82.03;99566.12;106169;1276;106963;-76
2022/04/21 03:13:39;;;;;;;15.00;11.50;;;;;;;8.41;82.06;99566.65;107241;1276;138652;-77
2022/04/21 03:16:11;;;;;;;12.80;11.10;;;;;;;8.38;82.26;99566.57;107306;1276;96085;-77
2022/04/21 03:18:43;;;;;;;15.60;11.50;;;;;;;8.38;82.30;99569.00;107247;1276;138532;-77
2022/04/21 03:24:21;;;;;;;13.40;11.30;;;;;;;8.40;82.40;99572.91;105865;1278;138206;-76
2022/04/21 03:26:55;;;;;;;13.50;11.30;;;;;;;8.43;82.38;99568.32;107369;1276;108998;-77
2022/04/21 03:29:27;;;;;;;14.30;10.90;;;;;;;8.46;82.32;99569.79;107243;1276;139253;-77
2022/04/21 03:31:59;;;;;;;13.00;10.80;;;;;;;8.46;82.20;99570.98;106766;1276;97819;-77
2022/04/21 03:34:31;;;;;;;11.70;10.10;;;;;;;8.48;82.34;99572.84;105900;1277;114235;-75
2022/04/21 03:37:03;;;;;;;11.70;10.00;;;;;;;8.50;82.27;99570.70;106164;1271;138553;-76
2022/04/21 03:39:36;;;;;;;14.00;10.50;;;;;;;8.50;82.24;99568.60;106528;1271;107876;-75
2022/04/21 03:42:20;;;;;;;12.30;10.40;;;;;;;8.51;82.28;99568.59;106052;1271;138519;-77
2022/04/21 03:44:52;;;;;;;16.30;11.70;;;;;;;8.56;82.52;99569.29;106369;1271;97859;-77
2022/04/21 03:47:25;;;;;;;15.30;12.00;;;;;;;8.62;82.33;99567.85;106146;1271;137851;-76
2022/04/21 03:49:57;;;;;;;15.50;12.30;;;;;;;8.66;82.29;99564.06;106274;1271;109164;-77
2022/04/21 03:52:29;;;;;;;17.20;13.60;;;;;;;8.69;82.19;99564.50;106265;1271;108935;-77
2022/04/21 03:55:01;;;;;;;18.90;12.90;;;;;;;8.70;82.18;99565.67;106100;1271;138029;-77
2022/04/21 03:57:34;;;;;;;17.60;13.00;;;;;;;8.70;81.99;99562.02;106252;1271;98032;-76
2022/04/21 04:00:08;;;;;;;15.70;12.30;;;;;;;8.69;81.94;99561.03;106047;1271;139391;-77
2022/04/21 04:02:41;;;;;;;13.60;11.80;;;;;;;8.68;81.89;99566.08;107840;1271;107891;-78
2022/04/21 04:05:14;;;;;;;15.70;12.00;;;;;;;8.67;81.81;99562.81;107803;1271;107912;-78
2022/04/21 04:10:53;;;;;;;15.40;12.60;;;;;;;8.75;81.92;99570.48;107816;1271;96346;-77
2022/04/21 04:13:26;;;;;;;14.70;12.20;;;;;;;8.79;81.74;99566.88;106746;1271;137619;-78
2022/04/21 04:15:59;;;;;;;16.40;13.20;;;;;;;8.77;81.57;99569.73;106314;1271;108443;-75
2022/04/21 04:18:31;;;;;;;21.10;14.40;;;;;;;8.76;81.52;99567.35;106137;1271;138154;-78
2022/04/21 04:21:03;;;;;;;13.70;12.10;;;;;;;8.75;81.53;99569.12;106245;1271;98602;-78
2022/04/21 04:23:35;;;;;;;14.40;11.50;;;;;;;8.72;81.31;99566.28;106154;1271;138867;-76
2022/04/21 04:26:07;;;;;;;14.00;11.70;;;;;;;8.66;81.22;99560.42;106234;1271;110890;-77
2022/04/21 04:28:39;;;;;;;16.90;11.60;;;;;;;8.58;81.26;99574.75;107822;1271;107788;-77
2022/04/21 04:31:11;;;;;;;14.50;11.60;;;;;;;8.57;81.54;99583.08;107661;1271;140423;-77
2022/04/21 04:33:43;;;;;;;14.30;12.00;;;;;;;8.59;81.41;99586.65;106340;1271;98817;-79
2022/04/21 04:36:16;;;;;;;16.00;12.20;;;;;;;8.57;81.35;99591.59;106114;1271;139821;-77
2022/04/21 04:38:49;;;;;;;13.00;10.90;;;;;;;8.58;81.61;99591.19;107833;1271;112855;-78
2022/04/21 04:44:11;;;;;;;14.80;11.10;;;;;;;8.69;81.41;99592.23;107797;1271;108709;-78
2022/04/21 04:46:43;;;;;;;14.30;10.60;;;;;;;8.72;81.21;99596.42;107799;1271;96211;-77
2022/04/21 04:49:15;;;;;;;12.80;10.70;;;;;;;8.74;81.02;99595.13;107703;1271;138484;-79
2022/04/21 04:51:47;;;;;;;12.70;9.50;;;;;;;8.76;81.03;99595.76;107828;1271;111354;-78
2022/04/21 04:54:19;;;;;;;13.10;10.50;;;;;;;8.79;80.97;99592.37;107666;1270;138954;-79
2022/04/21 04:56:51;;;;;;;12.70;9.60;;;;;;;8.82;80.89;99593.16;107801;1270;109094;-78
2022/04/21 04:59:23;;;;;;;12.60;9.90;;;;;;;8.86;80.73;99595.61;106446;1271;97830;-78
2022/04/21 05:01:55;;;;;;;11.90;9.50;;;;;;;8.91;80.61;99595.05;106130;1271;138273;-77
2022/04/21 05:04:28;;;;;;;14.00;10.00;;;;;;;8.97;80.62;99595.39;106285;1271;112405;-78
2022/04/21 05:07:00;;;;;;;14.80;9.60;;;;;;;9.01;80.53;99595.74;106131;1271;138588;-79
2022/04/21 05:09:32;;;;;;;12.70;10.10;;;;;;;9.05;80.44;99596.98;106201;1271;108934;-78
2022/04/21 05:12:06;;;;;;;12.50;10.20;;;;;;;9.06;80.35;99601.80;106137;1271;138220;-77
2022/04/21 05:14:38;;;;;;;14.20;10.90;;;;;;;9.03;80.06;99600.72;107847;1271;96094;-77
2022/04/21 05:17:10;;;;;;;12.40;10.00;;;;;;;8.99;79.96;99598.24;106855;1271;111150;-76
2022/04/21 05:19:43;;;;;;;14.60;10.80;;;;;;;8.98;80.13;99604.18;106118;1271;139499;-78
2022/04/21 05:22:17;;;;;;;11.60;9.60;;;;;;;8.96;80.00;99599.57;107773;1270;107641;-76
2022/04/21 05:24:52;;;;;;;12.80;9.30;;;;;;;8.96;80.25;99599.02;106391;1271;139400;-78
2022/04/21 05:27:26;;;;;;;11.70;9.40;;;;;;;8.98;80.18;99601.40;106212;1271;97867;-77
2022/04/21 05:32:53;;;;;;;12.30;9.60;;;;;;;9.00;80.21;99602.54;107804;1271;109136;-78
2022/04/21 05:35:26;;;;;;;12.50;9.30;;;;;;;9.03;80.24;99602.80;107618;1271;111891;-79
2022/04/21 05:37:59;;;;;;;12.70;9.50;;;;;;;9.06;80.15;99601.45;107678;1271;138415;-78
2022/04/21 05:40:33;;;;;;;13.90;10.20;;;;;;;9.07;80.20;99609.20;106840;1271;97961;-77
2022/04/21 05:43:08;;;;;;;14.50;10.50;;;;;;;9.07;80.00;99612.34;107657;1271;138682;-77
2022/04/21 05:45:42;;;;;;;12.10;9.50;;;;;;;9.07;79.97;99609.89;106751;1271;107801;-77
2022/04/21 05:48:16;;;;;;;14.40;9.90;;;;;;;9.09;80.00;99612.44;107680;1271;139134;-78
2022/04/21 05:50:53;;;;;;;11.30;9.30;;;;;;;9.15;80.11;99612.42;107803;1271;96214;-79
2022/04/21 05:53:27;;;;;;;13.30;9.60;;;;;;;9.17;79.98;99614.27;107810;1271;96086;-79
2022/04/21 05:56:00;;;;;;;10.90;9.40;;;;;;;9.17;80.02;99615.13;106713;1271;139291;-79
2022/04/21 05:58:33;;;;;;;15.00;9.90;;;;;;;9.15;79.88;99609.11;106260;1271;108337;-78
2022/04/21 06:01:08;;;;;;;13.20;9.90;;;;;;;9.15;79.86;99612.77;106496;1271;138680;-78
2022/04/21 06:03:42;;;;;;;12.30;10.30;;;;;;;9.17;79.91;99611.16;106899;1271;97917;-78
2022/04/21 06:06:14;;;;;;;14.70;9.60;;;;;;;9.17;79.85;99613.23;107699;1271;138510;-79
2022/04/21 06:08:46;;;;;;;12.30;10.50;;;;;;;9.22;79.97;99614.09;107548;1271;112468;-78
2022/04/21 06:11:18;;;;;;;11.60;10.00;;;;;;;9.26;80.04;99612.17;107346;1271;109067;-78
2022/04/21 06:13:52;;;;;;;15.50;10.00;;;;;;;9.32;79.88;99607.60;107669;1271;138494;-78
2022/04/21 06:16:24;;;;;;;13.70;9.70;;;;;;;9.37;79.77;99611.76;107792;1271;96421;-78
2022/04/21 06:18:56;;;;;;;12.20;9.60;;;;;;;9.42;79.67;99612.79;107750;1271;138225;-79
2022/04/21 06:21:28;;;;;;;12.40;9.80;;;;;;;9.49;79.61;99617.20;107843;1271;110649;-78
2022/04/21 06:24:00;;;;;;;11.50;9.50;;;;;;;9.52;79.46;99617.80;107730;1271;138560;-78
2022/04/21 06:26:32;;;;;;;13.70;9.60;;;;;;;9.53;79.35;99615.70;107681;1271;107635;-77
2022/04/21 06:29:05;;;;;;;12.80;9.50;;;;;;;9.54;79.27;99615.46;107807;1271;96176;-77
2022/04/21 06:31:37;;;;;;;16.50;10.10;;;;;;;9.56;79.13;99619.05;107712;1271;138410;-78
2022/04/21 06:34:09;;;;;;;12.80;9.70;;;;;;;9.61;79.23;99617.81;107539;1271;112566;-79
2022/04/21 06:36:41;;;;;;;14.50;10.40;;;;;;;9.66;79.11;99621.56;106526;1271;138573;-79
2022/04/21 06:39:13;;;;;;;16.30;10.20;;;;;;;9.72;79.07;99620.69;106229;1271;108894;-79
2022/04/21 06:41:45;;;;;;;12.00;9.70;;;;;;;9.78;79.14;99618.02;106170;1271;97847;-79
2022/04/21 06:50:02;;;;;;;15.10;11.40;;;;;;;9.78;78.76;99623.39;106511;1271;137939;-79
2022/04/21 06:52:34;;;;;;;14.70;12.10;;;;;;;9.77;78.65;99620.15;107833;1271;107475;-79
2022/04/21 06:55:07;;;;;;;19.90;14.10;;;;;;;9.77;78.66;99622.92;107658;1271;138687;-78
2022/04/21 06:57:39;;;;;;;14.70;11.60;;;;;;;9.75;78.69;99615.71;107830;1271;96041;-78
2022/04/21 07:00:13;;;;;;;16.00;11.00;;;;;;;9.69;78.48;99617.50;106993;1271;138892;-79
2022/04/21 07:02:45;;;;;;;13.30;10.60;;;;;;;9.63;78.65;99618.41;107822;1271;107818;-79
2022/04/21 07:05:18;;;;;;;12.80;10.70;;;;;;;9.57;78.49;99624.06;106946;1271;108887;-80
2022/04/21 07:07:50;;;;;;;13.50;10.30;;;;;;;9.52;78.63;99623.02;107328;1271;140387;-79
2022/04/21 07:10:23;;;;;;;13.30;10.00;;;;;;;9.52;78.78;99625.98;107281;1271;96047;-78
2022/04/21 07:12:55;;;;;;;12.50;10.40;;;;;;;9.51;78.92;99631.71;107446;1271;139050;-75
2022/04/21 07:15:27;;;;;;;16.40;10.30;;;;;;;9.58;79.17;99631.30;107334;1271;109214;-82
2022/04/21 07:17:59;;;;;;;14.20;11.10;;;;;;;9.62;79.18;99633.88;106161;1271;141110;-77
2022/04/21 07:20:33;;;;;;;12.40;9.80;;;;;;;9.63;79.16;99634.39;107770;1271;95876;-81
2022/04/21 07:23:05;;;;;;;13.00;10.20;;;;;;;9.66;79.20;99629.90;107795;1271;96160;-81
2022/04/21 07:25:39;;;;;;;11.80;10.00;;;;;;;9.67;79.02;99633.85;107701;1271;138444;-79
2022/04/21 07:28:11;;;;;;;14.60;10.80;;;;;;;9.70;79.12;99634.81;107159;1271;106821;-78
2022/04/21 07:30:43;;;;;;;13.10;9.50;;;;;;;9.75;79.21;99633.23;106858;1271;138761;-79
2022/04/21 07:33:18;;;;;;;11.50;10.00;;;;;;;9.81;79.22;99633.89;106736;1271;97841;-79
2022/04/21 07:35:51;;;;;;;11.30;9.00;;;;;;;9.80;78.92;99641.38;107805;1271;96054;-75
2022/04/21 07:38:23;;;;;;;11.60;9.60;;;;;;;9.78;78.86;99639.73;107379;1271;138182;-77
2022/04/21 07:40:56;;;;;;;14.70;10.40;;;;;;;9.79;78.94;99648.38;106236;1271;108831;-78
2022/04/21 07:43:28;;;;;;;13.70;9.60;;;;;;;9.81;78.96;99641.87;107600;1271;139147;-82
2022/04/21 07:46:00;;;;;;;11.70;9.30;;;;;;;9.77;78.96;99639.92;106188;1271;98185;-80
2022/04/21 07:51:18;;;;;;;12.10;9.50;;;;;;;9.75;78.90;99638.66;107796;1271;112607;-78
2022/04/21 07:53:50;;;;;;;11.20;9.30;;;;;;;9.78;79.04;99639.39;106706;1270;108784;-78
2022/04/21 07:56:22;;;;;;;11.30;9.20;;;;;;;9.81;78.95;99644.13;106210;1271;138148;-78
2022/04/21 07:58:55;;;;;;;10.90;8.70;;;;;;;9.82;79.00;99645.30;106245;1271;97807;-77
2022/04/21 08:01:27;;;;;;;11.80;8.60;;;;;;;9.81;79.02;99642.74;106154;1271;139104;-77
2022/04/21 08:04:02;;;;;;;10.80;9.10;;;;;;;9.81;79.12;99644.09;107808;1271;111029;-78
2022/04/21 08:06:34;;;;;;;13.10;8.40;;;;;;;9.86;79.19;99641.64;107672;1271;139158;-79
2022/04/21 08:09:06;;;;;;;10.80;8.60;;;;;;;9.87;79.22;99640.08;107823;1271;108436;-78
2022/04/21 08:11:38;;;;;;;10.50;8.30;;;;;;;9.86;79.01;99641.64;107826;1271;95814;-78
2022/04/21 08:14:10;;;;;;;12.60;8.50;;;;;;;9.91;79.04;99640.96;107714;1271;138679;-78
2022/04/21 08:16:42;;;;;;;10.90;8.40;;;;;;;9.95;79.05;99639.74;106909;1271;112450;-78
2022/04/21 08:19:14;;;;;;;9.80;7.90;;;;;;;10.04;79.12;99640.63;106382;1271;138506;-74
2022/04/21 08:21:47;;;;;;;9.50;7.70;;;;;;;10.10;78.81;99640.38;106229;1271;108438;-79
2022/04/21 08:33:18;;;;;;;8.80;7.90;;;;;;;10.54;78.90;99627.83;106194;1271;108413;-78
2022/04/21 08:35:57;;;;;;;10.00;7.40;;;;;;;10.69;78.63;99622.66;106199;1271;109119;-78
2022/04/21 08:38:30;;;;;;;11.30;7.50;;;;;;;10.87;78.55;99615.77;107684;1271;139052;-81
2022/04/21 08:41:08;;;;;;;12.00;7.50;;;;;;;11.02;78.09;99612.35;107788;1271;96182;-80
2022/04/21 08:43:41;;;;;;;14.20;7.80;;;;;;;11.16;77.75;99614.50;107690;1269;138798;-81
2022/04/21 08:46:17;;;;;;;16.10;8.40;;;;;;;11.29;77.32;99611.69;107834;1271;108804;-81
2022/04/21 08:48:53;;;;;;;12.80;8.40;;;;;;;11.49;77.16;99607.98;107460;1271;138073;-80
2022/04/21 08:51:28;;;;;;;14.20;8.60;;;;;;;11.63;76.72;99602.81;106491;1271;97984;-80
2022/04/21 08:54:02;;;;;;;10.60;7.60;;;;;;;11.76;76.13;99600.98;107312;1271;96159;-80
2022/04/21 08:56:34;;;;;;;12.10;8.20;;;;;;;11.76;75.47;99602.70;106985;1271;137596;-79
2022/04/21 08:59:06;;;;;;;8.80;7.30;;;;;;;11.73;75.65;99598.65;107356;1271;108233;-80
2022/04/21 09:01:38;;;;;;;12.30;7.50;;;;;;;11.70;75.40;99604.93;107188;1271;138336;-79
2022/04/21 09:04:10;;;;;;;9.00;6.90;;;;;;;11.66;75.45;99603.34;107442;1271;97597;-80
2022/04/21 09:06:42;;;;;;;7.40;6.60;;;;;;;11.64;75.42;99605.02;107700;1271;138064;-80
2022/04/21 09:09:21;;;;;;;8.70;7.00;;;;;;;11.68;75.13;99606.60;107827;1271;111449;-80
2022/04/21 09:11:55;;;;;;;12.30;8.30;;;;;;;11.69;75.06;99604.80;107825;1271;110765;-80
2022/04/21 09:14:27;;;;;;;9.20;7.50;;;;;;;11.74;74.98;99604.55;107703;1271;138320;-80
2022/04/21 09:17:06;;;;;;;11.90;7.40;;;;;;;11.83;75.12;99604.52;107786;1271;96150;-79
2022/04/21 09:19:57;;;;;;;8.40;6.50;;;;;;;11.94;74.96;99599.98;106997;1271;139557;-80
2022/04/21 09:22:34;;;;;;;8.00;6.20;;;;;;;12.05;74.61;99596.13;107796;1271;112528;-79
2022/04/21 09:25:09;;;;;;;7.70;6.40;;;;;;;12.08;74.03;99592.83;107364;1271;138472;-77
2022/04/21 09:27:42;;;;;;;8.20;5.90;;;;;;;12.10;73.47;99593.27;107284;1271;108687;-81
2022/04/21 09:30:16;;;;;;;7.70;6.10;;;;;;;12.12;73.24;99590.75;107732;1271;137849;-80
2022/04/21 09:32:56;;;;;;;7.20;6.30;;;;;;;12.14;73.03;99587.84;107490;1271;97743;-79
2022/04/21 09:35:33;;;;;;;8.30;6.10;;;;;;;12.17;72.97;99585.61;107866;1270;112541;-79
2022/04/21 09:38:05;;;;;;;8.50;6.10;;;;;;;12.21;72.75;99587.69;107730;1271;137611;-79
2022/04/21 09:40:37;;;;;;;9.00;6.30;;;;;;;12.25;72.83;99585.23;107805;1271;108884;-79
2022/04/21 09:43:09;;;;;;;9.30;6.40;;;;;;;12.29;72.64;99586.57;107666;1271;137624;-81
2022/04/21 09:48:33;;;;;;;10.40;7.10;;;;;;;12.33;72.35;99580.13;107586;1273;140126;-79
2022/04/21 09:51:12;;;;;;;8.00;6.30;;;;;;;12.38;72.43;99583.52;107807;1271;108619;-81
2022/04/21 09:53:56;;;;;;;9.10;6.00;;;;;;;12.44;72.33;99581.84;107779;1271;108860;-81
2022/04/21 09:56:35;;;;;;;8.50;6.20;;;;;;;12.46;71.74;99582.93;107494;1270;139031;-79
2022/04/21 09:59:09;;;;;;;9.40;6.40;;;;;;;12.50;71.83;99585.54;106295;1273;98400;-77
2022/04/21 10:01:42;;;;;;;11.30;6.40;;;;;;;12.51;71.67;99581.48;106108;1271;137646;-80
2022/04/21 10:04:17;;;;;;;9.30;6.70;;;;;;;12.52;71.54;99585.42;107093;1271;107924;-79
2022/04/21 10:06:50;;;;;;;9.90;6.60;;;;;;;12.54;71.37;99583.73;107503;1271;138562;-79
2022/04/21 10:09:24;;;;;;;7.60;6.80;;;;;;;12.53;70.92;99581.70;107688;1271;96577;-79
2022/04/21 10:11:59;;;;;;;10.00;6.60;;;;;;;12.48;70.90;99581.47;107104;1272;97873;-78
2022/04/21 10:14:32;;;;;;;8.10;6.70;;;;;;;12.46;70.87;99585.39;107030;1271;137754;-78
2022/04/21 10:17:07;;;;;;;8.30;6.70;;;;;;;12.44;70.95;99584.07;107831;1271;109242;-79
2022/04/21 10:19:40;;;;;;;9.70;7.00;;;;;;;12.47;70.85;99577.34;106560;1271;138241;-79
2022/04/21 10:22:17;;;;;;;9.70;6.80;;;;;;;12.44;70.45;99576.27;106199;1271;97851;-80
2022/04/21 10:24:49;;;;;;;9.50;7.10;;;;;;;12.42;70.30;99578.78;106100;1271;138845;-82
2022/04/21 10:27:43;;;;;;;7.20;6.20;;;;;;;12.46;70.49;99586.07;106196;1271;112558;-82
2022/04/21 10:30:21;;;;;;;9.30;7.00;;;;;;;12.51;70.38;99591.91;106818;1271;139335;-82
2022/04/21 10:32:57;;;;;;;8.20;6.30;;;;;;;12.55;70.29;99589.95;107826;1271;109013;-81
2022/04/21 10:35:56;;;;;;;10.50;7.40;;;;;;;12.61;70.35;99590.02;107877;1271;95999;-81
2022/04/21 10:38:28;;;;;;;8.40;6.90;;;;;;;12.70;70.28;99582.91;107563;1271;137849;-79
2022/04/21 10:41:06;;;;;;;10.50;7.30;;;;;;;12.79;70.26;99582.81;106289;1271;112044;-82
2022/04/21 10:44:04;;;;;;;9.50;7.20;;;;;;;12.87;69.76;99582.22;107294;1271;139164;-79
2022/04/21 10:46:36;;;;;;;10.80;7.90;;;;;;;12.93;69.60;99586.27;107009;1270;107469;-81
2022/04/21 10:49:56;;;;;;;9.80;7.30;;;;;;;13.02;69.38;99582.47;106075;1271;137887;-80
2022/04/21 10:58:53;;;;;;;10.90;7.90;;;;;;;13.26;68.32;99586.63;106869;1271;107727;-81
2022/04/21 11:01:33;;;;;;;8.70;6.90;;;;;;;13.34;68.13;99589.17;106834;1271;138115;-82
2022/04/21 11:04:24;;;;;;;11.20;7.40;;;;;;;13.38;68.01;99588.77;107782;1271;96223;-82
2022/04/21 11:07:11;;;;;;;10.00;6.90;;;;;;;13.43;67.52;99587.46;107750;1271;137766;-81
2022/04/21 11:09:50;;;;;;;8.90;7.20;;;;;;;13.44;67.17;99587.26;106705;1271;112583;-81
2022/04/21 11:12:49;;;;;;;10.70;7.00;;;;;;;13.42;66.29;99584.21;107727;1271;138176;-82
2022/04/21 11:15:40;;;;;;;8.40;5.90;;;;;;;13.36;65.75;99585.93;107717;1271;108779;-82
2022/04/21 11:18:15;;;;;;;8.90;6.40;;;;;;;13.33;65.82;99587.73;107681;1271;138946;-80
2022/04/21 11:20:48;;;;;;;10.40;7.10;;;;;;;13.35;65.89;99584.98;106533;1271;97837;-82
2022/04/21 11:23:47;;;;;;;8.60;6.00;;;;;;;13.39;65.97;99588.77;106263;1271;112536;-79
2022/04/21 11:26:25;;;;;;;9.60;6.20;;;;;;;13.47;65.73;99587.98;106575;1271;140015;-76
2022/04/21 11:29:03;;;;;;;7.90;6.20;;;;;;;13.62;65.85;99582.60;106157;1271;108689;-82
2022/04/21 11:31:36;;;;;;;8.90;6.20;;;;;;;13.71;64.83;99580.19;107444;1271;138233;-80
2022/04/21 11:34:08;;;;;;;7.20;6.10;;;;;;;13.75;64.75;99582.23;106242;1271;97941;-80
2022/04/21 11:36:41;;;;;;;8.20;6.60;;;;;;;13.80;64.60;99581.20;106141;1271;137750;-79
2022/04/21 11:39:15;;;;;;;11.70;6.50;;;;;;;13.88;64.58;99576.08;106248;1271;108362;-79
2022/04/21 11:41:48;;;;;;;9.60;6.30;;;;;;;13.90;64.29;99576.83;106220;1271;108606;-80
2022/04/21 11:44:25;;;;;;;8.20;6.30;;;;;;;13.91;63.96;99573.94;107672;1270;138027;-79
2022/04/21 11:46:57;;;;;;;7.50;6.00;;;;;;;13.95;63.92;99575.34;107795;1271;95923;-79
2022/04/21 11:49:29;;;;;;;8.50;6.10;;;;;;;14.01;64.05;99567.80;107684;1271;138319;-80
2022/04/21 11:52:02;;;;;;;8.20;6.30;;;;;;;14.03;63.73;99567.70;107869;1271;109172;-80
2022/04/21 11:54:37;;;;;;;10.30;6.40;;;;;;;14.03;63.98;99565.10;106905;1271;138514;-80
2022/04/21 11:57:09;;;;;;;10.40;6.40;;;;;;;14.08;63.80;99563.93;107522;1271;96412;-79
2022/04/21 11:59:43;;;;;;;12.30;6.60;;;;;;;14.12;63.51;99564.73;106975;1271;97848;-81
2022/04/21 12:08:05;;;;;;;9.40;6.10;;;;;;;14.08;62.88;99571.98;106221;1271;137678;-81
2022/04/21 12:10:37;;;;;;;8.80;6.80;;;;;;;14.03;62.65;99572.95;107203;1271;97789;-82
2022/04/21 12:13:11;;;;;;;9.10;6.10;;;;;;;13.94;62.46;99584.27;106822;1271;137644;-80
2022/04/21 12:15:42;;;;;;;9.40;6.30;;;;;;;13.83;62.68;99584.39;107797;1271;112305;-80
2022/04/21 12:18:14;;;;;;;6.80;6.10;;;;;;;13.74;62.71;99581.89;106709;1271;138294;-81
2022/04/21 12:20:55;;;;;;;9.30;6.40;;;;;;;13.68;62.58;99575.78;106263;1271;109826;-80
2022/04/21 12:23:28;;;;;;;8.70;6.80;;;;;;;13.65;62.58;99573.02;106676;1271;97933;-79
2022/04/21 12:26:00;;;;;;;7.90;6.50;;;;;;;13.63;62.75;99576.05;107259;1271;137828;-80
2022/04/21 12:28:46;;;;;;;11.70;6.50;;;;;;;13.65;62.91;99575.28;107723;1271;112635;-81
2022/04/21 12:31:21;;;;;;;8.00;6.60;;;;;;;13.69;62.96;99572.23;107655;1271;138146;-81
2022/04/21 12:33:53;;;;;;;10.40;6.20;;;;;;;13.73;62.79;99574.98;106726;1271;108364;-81
2022/04/21 12:36:28;;;;;;;9.10;6.20;;;;;;;13.79;62.63;99573.08;106035;1273;138425;-82
2022/04/21 12:39:04;;;;;;;8.20;6.90;;;;;;;13.84;62.45;99575.61;106356;1271;97845;-81